ROYN/OGN METAR and TAF weather

Enter ICAO airport designator
Station Type Date Time Source
ROYN METAR 2019/06/27 08:00 UTC NOAA

ROYN 270800Z AUTO 19009KT 9999 FEW018 //////TCU 30/27 Q1001


Station Type Date Time Source
ROYN Decoded METAR 2019/06/27 08:00 UTC NOAA

Yonaguni Airport, Japan (ROYN) 24-28N 122-59E 19M
Jun 27, 2019 - 04:00 AM EDT / 2019.06.27 0800 UTC
Wind: from the S (190 degrees) at 10 MPH (9 KT):0
Visibility: greater than 7 mile(s):0
Sky conditions: mostly clear
Weather: Towering cumulus clouds observed
Temperature: 86 F (30 C)
Heat index: 101.8 F (38.8 C):1
Dew Point: 80 F (27 C)
Relative Humidity: 84%
Pressure (altimeter): 29.56 in. Hg (1001 hPa)
ob: ROYN 270800Z AUTO 19009KT 9999 FEW018 //////TCU 30/27 Q1001
cycle: 8

Station Type Date Time Source
ROYN TAF UTC NOAA

Error!

Example: see airport list